Skip Navigation Links
NOAA logo - Click to go to the NOAA homepage
NOAA's National Weather Service
Alaska Aviation Weather Unit
  NWS logo - Click to go to the NWS homepage
Left Navbar Graphic     09 AKDT = 17 GMT

   
NOAA is celebrating 200 years of science, service, and stewardship. Visit the NOAA 200th celebration Web site to learn more.
USA.gov is the U.S. Government's official Web portal to all Federal, state and local government Web resources and services.
Facebook
NWS on Facebook

Important Change Regarding the AAWU Web Presence

 

Over the last several months, the AAWU has been working to navigate its webpages to a nationally supported server. Security, as well as other needs, have necessitated the change.  In the process, we have made an effort to enhance the functionality of our website, as well as some of our products. As of June 20, 2017, aawu.arh.noaa.gov will be discontinued. The new AAWU web address is weather.gov/aawu. It is now live and will run in-parallel with the old site until it is discontinued. Please send any feedback or questions regarding the new webpages to nws.ar.aawu.webauthors@noaa.gov.  Thank you for your patience during this time of transition.
AAWU Home :: Display TAF Add Bookmark
METAR PASH 231116Z AUTO 33003KT 10SM OVC030 00/M01 A2977 RMK AO1 PNO=

METAR PASH 231136Z AUTO 00000KT 10SM BKN032 OVC047 00/M01 A2978 RMK AO1
     PNO=

METAR PASH 231156Z AUTO 00000KT 10SM FEW032 OVC045 00/M01 A2978 RMK AO1
     10010 21010 52003 PNO=

METAR PASH 231216Z AUTO 00000KT 10SM BKN018 OVC047 00/M01 A2978 RMK AO1
     PNO=

METAR PASH 231236Z AUTO 27003KT 10SM SCT016 BKN021 OVC032 00/M01 A2977
     RMK AO1 PNO=

METAR PASH 231256Z AUTO 29003KT 10SM FEW016 OVC034 00/M01 A2977 RMK
 AO1 PNO=

METAR PASH 231316Z AUTO 29004KT 10SM SCT007 BKN036 OVC065 00/00 A2977
     RMK AO1 PNO=

METAR PASH 231336Z AUTO 27003KT 10SM BKN005 BKN016 OVC041 00/M01 A2977
     RMK AO1 PNO=

METAR PASH 231356Z AUTO 26004KT 10SM OVC004 00/M01 A2977 RMK AO1 PNO=

METAR PASH 231416Z AUTO 23004KT 10SM OVC005 01/00 A2978 RMK AO1 PNO=

METAR PASH 231436Z AUTO 24004KT 10SM OVC004 01/00 A2978 RMK AO1 PNO=

METAR PASH 231456Z AUTO 24005KT 10SM OVC004 01/00 A2978 RMK AO1 54000
     PNO=

METAR PASH 231516Z AUTO 24006KT 5SM OVC003 01/01 A2978 RMK AO1 PNO=

METAR PASH 231536Z AUTO 24006KT 7SM OVC003 01/00 A2978 RMK AO1 PNO=

METAR PASH 231556Z AUTO 24007KT 10SM BKN003 OVC008 01/00 A2978 RMK
 AO1 PNO=

METAR PASH 231616Z AUTO 25006KT 10SM OVC006 01/00 A2979 RMK AO1 PNO=

METAR PASH 231636Z AUTO 24006KT 10SM OVC005 01/01 A2979 RMK AO1 PNO=

METAR PASH 231656Z AUTO 23006KT 2SM OVC006 01/01 A2979 RMK AO1 PNO=


NOAA's National Weather Service
Alaska Aviation Weather Unit
6930 Sand Lake Road
Anchorage, AK 99502-1845
Disclaimer
Credits
Glossary
Privacy Policy
About Us
Career Opportunities
Contact AAWU Internet Services Site last modified: April, 17th 2012